Time;durP1;ratioP1;P1;durP2;ratioP2;P2;SDS_P1;SDS_P2;PMS_P1;PMS_P2;Temp;Humidity;BMP_temperature;BMP_pressure;BME280_temperature;BME280_humidity;BME280_pressure;Samples;Min_cycle;Max_cycle;Signal;HPM_P1;HPM_P2
2021/03/28 00:01:16;;;;;;;3.20;2.90;;;3.50;99.90;;;;;;5007300;28;20710;-78
2021/03/28 00:03:46;;;;;;;4.60;3.30;;;3.50;99.90;;;;;;5007535;28;20194;-79
2021/03/28 00:06:16;;;;;;;4.10;3.03;;;3.40;99.90;;;;;;5007272;28;20206;-79
2021/03/28 00:08:45;;;;;;;3.70;3.37;;;3.40;99.90;;;;;;5007165;28;20562;-79
2021/03/28 00:11:15;;;;;;;3.40;2.93;;;3.50;99.90;;;;;;5007243;28;20256;-79
2021/03/28 00:13:48;;;;;;;3.53;2.80;;;3.50;99.90;;;;;;5007223;28;20209;-79
2021/03/28 00:16:16;;;;;;;3.20;2.80;;;3.50;99.90;;;;;;5007018;28;20197;-77
2021/03/28 00:18:54;;;;;;;4.40;3.13;;;3.50;99.90;;;;;;5007237;28;20229;-78
2021/03/28 00:21:23;;;;;;;4.27;3.17;;;3.60;99.90;;;;;;5006942;28;20655;-78
2021/03/28 00:23:54;;;;;;;6.60;2.97;;;3.60;99.90;;;;;;5007045;28;20256;-78
2021/03/28 00:26:28;;;;;;;4.10;2.77;;;3.60;99.90;;;;;;5006724;28;20702;-78
2021/03/28 00:29:09;;;;;;;3.23;2.80;;;3.50;99.90;;;;;;5006833;28;20241;-78
2021/03/28 00:31:40;;;;;;;3.87;2.80;;;3.50;99.90;;;;;;5007176;28;20224;-79
2021/03/28 00:34:15;;;;;;;2.87;2.50;;;3.50;99.90;;;;;;5007147;28;20219;-78
2021/03/28 00:36:45;;;;;;;4.23;3.10;;;3.50;99.90;;;;;;5004083;28;20656;-74
2021/03/28 00:39:15;;;;;;;5.67;3.20;;;3.50;99.90;;;;;;4998160;28;20621;-73
2021/03/28 00:41:53;;;;;;;4.80;2.97;;;3.60;99.90;;;;;;5004339;28;20742;-78
2021/03/28 00:44:22;;;;;;;4.40;3.00;;;3.70;99.90;;;;;;4994693;28;20602;-79
2021/03/28 00:46:54;;;;;;;4.10;2.50;;;3.70;99.90;;;;;;5000721;28;20202;-78
2021/03/28 00:49:24;;;;;;;2.77;2.57;;;3.60;99.90;;;;;;5001118;28;20255;-78
2021/03/28 00:52:00;;;;;;;4.20;2.83;;;3.60;99.90;;;;;;4998854;28;20260;-78
2021/03/28 00:54:40;;;;;;;4.73;2.80;;;3.50;99.90;;;;;;5000790;28;20225;-78
2021/03/28 00:57:16;;;;;;;2.80;2.60;;;3.40;99.90;;;;;;5001126;28;20363;-75
2021/03/28 00:59:55;;;;;;;4.27;2.80;;;3.40;99.90;;;;;;4990910;28;20206;-75
2021/03/28 01:02:28;;;;;;;4.50;3.07;;;3.40;99.90;;;;;;4990845;28;20287;-76
2021/03/28 01:05:27;;;;;;;3.73;2.83;;;3.40;99.90;;;;;;4990319;28;20618;-78
2021/03/28 01:08:04;;;;;;;4.03;2.50;;;3.40;99.90;;;;;;4983048;28;20209;-79
2021/03/28 01:10:59;;;;;;;3.13;2.80;;;3.40;99.90;;;;;;4990495;28;20229;-78
2021/03/28 01:13:59;;;;;;;4.50;2.97;;;3.30;99.90;;;;;;4986887;28;20202;-78
2021/03/28 01:17:08;;;;;;;2.83;2.63;;;3.30;99.90;;;;;;4990507;28;20195;-79
2021/03/28 01:20:01;;;;;;;3.97;2.80;;;3.30;99.90;;;;;;4989877;28;20242;-77
2021/03/28 01:22:38;;;;;;;4.23;3.10;;;3.40;99.90;;;;;;4990071;28;20289;-78
2021/03/28 01:25:17;;;;;;;5.47;2.90;;;3.40;99.90;;;;;;4990481;28;20194;-78
2021/03/28 01:27:50;;;;;;;5.03;2.70;;;3.40;99.90;;;;;;4989792;28;20650;-78
2021/03/28 01:30:19;;;;;;;3.27;2.60;;;3.50;99.90;;;;;;4989470;28;20202;-78
2021/03/28 01:32:48;;;;;;;3.97;2.90;;;3.50;99.90;;;;;;4990043;28;20693;-78
2021/03/28 01:35:21;;;;;;;7.10;2.80;;;3.50;99.90;;;;;;4990302;28;20280;-78
2021/03/28 01:37:51;;;;;;;5.20;3.13;;;3.40;99.90;;;;;;4990288;28;20595;-76
2021/03/28 01:40:22;;;;;;;3.60;3.10;;;3.40;99.90;;;;;;4990165;28;20296;-77
2021/03/28 01:43:04;;;;;;;5.37;2.97;;;3.30;99.90;;;;;;4989899;28;20636;-76
2021/03/28 01:45:39;;;;;;;8.07;3.73;;;3.30;99.90;;;;;;4989950;28;20194;-77
2021/03/28 01:48:20;;;;;;;4.27;2.93;;;3.30;99.90;;;;;;4989935;28;20665;-77
2021/03/28 01:50:54;;;;;;;4.60;3.00;;;3.30;99.90;;;;;;4989974;28;20237;-77
2021/03/28 01:53:31;;;;;;;4.60;2.93;;;3.40;99.90;;;;;;4989627;28;20689;-76
2021/03/28 01:56:03;;;;;;;5.23;3.13;;;3.40;99.90;;;;;;4989837;28;20225;-77
2021/03/28 01:58:40;;;;;;;5.50;2.97;;;3.30;99.90;;;;;;4989820;28;20190;-77
2021/03/28 02:01:12;;;;;;;6.50;3.23;;;3.30;99.90;;;;;;4990104;28;20233;-80
2021/03/28 02:03:49;;;;;;;6.10;2.83;;;3.30;99.90;;;;;;4989789;28;20245;-80
2021/03/28 02:06:44;;;;;;;4.77;2.83;;;3.30;99.90;;;;;;4989931;28;20233;-80
2021/03/28 02:09:25;;;;;;;4.33;3.20;;;3.30;99.90;;;;;;4989771;28;20747;-79
2021/03/28 02:12:05;;;;;;;4.17;3.10;;;3.30;99.90;;;;;;4989888;28;20226;-80
2021/03/28 02:14:58;;;;;;;5.33;3.10;;;3.30;99.90;;;;;;4989817;28;20198;-79
2021/03/28 02:17:31;;;;;;;6.27;3.00;;;3.20;99.90;;;;;;4989558;28;20214;-80
2021/03/28 02:20:07;;;;;;;6.43;3.13;;;3.20;99.90;;;;;;4989168;28;20231;-77
2021/03/28 02:22:43;;;;;;;3.20;2.73;;;3.20;99.90;;;;;;4989082;28;20240;-78
2021/03/28 02:25:16;;;;;;;5.60;3.07;;;3.30;99.90;;;;;;4989296;28;20209;-79
2021/03/28 02:27:48;;;;;;;4.03;3.33;;;3.20;99.90;;;;;;4989537;28;20194;-80
2021/03/28 02:30:24;;;;;;;8.73;3.40;;;3.20;99.90;;;;;;4989510;28;20230;-79
2021/03/28 02:33:12;;;;;;;4.93;3.13;;;3.20;99.90;;;;;;4989575;28;20237;-78
2021/03/28 02:35:49;;;;;;;6.63;3.03;;;3.20;99.90;;;;;;4989070;28;20649;-79
2021/03/28 02:38:28;;;;;;;7.07;2.80;;;3.20;99.90;;;;;;4989384;28;20649;-79
2021/03/28 02:41:07;;;;;;;7.60;3.00;;;3.20;99.90;;;;;;4989431;28;20198;-79
2021/03/28 02:43:40;;;;;;;6.33;3.23;;;3.10;99.90;;;;;;4991999;28;20254;-78
2021/03/28 02:46:16;;;;;;;5.47;3.97;;;3.20;99.90;;;;;;5006681;28;20232;-79
2021/03/28 02:48:58;;;;;;;6.30;2.97;;;3.10;99.90;;;;;;5008682;28;20193;-79
2021/03/28 02:51:55;;;;;;;5.67;3.13;;;3.10;99.90;;;;;;5008777;28;20291;-77
2021/03/28 02:55:06;;;;;;;9.03;3.60;;;3.20;99.90;;;;;;5008575;28;20209;-78
2021/03/28 02:57:45;;;;;;;6.97;3.20;;;3.10;99.90;;;;;;5008534;28;20209;-78
2021/03/28 03:00:20;;;;;;;7.10;3.03;;;3.20;99.90;;;;;;5008765;28;20208;-78
2021/03/28 03:03:06;;;;;;;3.80;2.90;;;3.20;99.90;;;;;;5008973;28;20264;-78
2021/03/28 03:06:11;;;;;;;5.13;3.13;;;3.20;99.90;;;;;;5011758;28;20220;-78
2021/03/28 03:08:42;;;;;;;6.27;3.20;;;3.10;99.90;;;;;;4981885;28;20216;-79
2021/03/28 03:11:37;;;;;;;6.80;3.33;;;3.20;99.90;;;;;;5012453;28;20291;-78
2021/03/28 03:14:26;;;;;;;6.83;3.53;;;3.10;99.90;;;;;;4996603;28;20216;-74
2021/03/28 03:17:37;;;;;;;4.93;3.13;;;3.10;99.90;;;;;;5012215;28;20201;-74
2021/03/28 03:20:22;;;;;;;7.37;3.10;;;3.10;99.90;;;;;;5011919;28;20241;-74
2021/03/28 03:23:15;;;;;;;5.43;3.13;;;3.10;99.90;;;;;;5012000;28;20661;-74
2021/03/28 03:26:42;;;;;;;6.23;3.20;;;3.10;99.90;;;;;;5011801;28;20200;-74
2021/03/28 03:29:44;;;;;;;5.43;2.80;;;3.10;99.90;;;;;;4950770;29;20287;-75
2021/03/28 03:32:32;;;;;;;10.83;3.10;;;3.00;99.90;;;;;;5011789;28;20256;-74
2021/03/28 03:35:20;;;;;;;5.07;2.63;;;3.00;99.90;;;;;;5011899;28;20197;-74
2021/03/28 03:38:06;;;;;;;8.00;3.00;;;3.00;99.90;;;;;;5011578;28;20577;-74
2021/03/28 03:40:39;;;;;;;7.43;3.07;;;2.90;99.90;;;;;;5011483;28;20272;-75
2021/03/28 03:43:32;;;;;;;5.27;3.30;;;3.00;99.90;;;;;;5011867;28;20215;-74
2021/03/28 03:46:05;;;;;;;7.80;2.97;;;3.10;99.90;;;;;;5011772;28;20193;-74
2021/03/28 03:48:59;;;;;;;5.93;2.90;;;3.10;99.90;;;;;;5011531;28;20202;-75
2021/03/28 03:51:42;;;;;;;6.03;2.80;;;2.90;99.90;;;;;;5011800;28;20267;-74
2021/03/28 03:54:13;;;;;;;5.70;3.00;;;2.90;99.90;;;;;;5011316;28;20964;-74
2021/03/28 03:56:52;;;;;;;7.93;2.90;;;2.90;99.90;;;;;;5011060;28;20675;-79
2021/03/28 03:59:28;;;;;;;6.33;2.80;;;2.90;99.90;;;;;;5011262;28;20201;-77
2021/03/28 04:02:01;;;;;;;5.53;2.60;;;2.80;99.90;;;;;;5011755;28;20570;-78
2021/03/28 04:04:43;;;;;;;5.60;2.77;;;2.80;99.90;;;;;;5011508;28;20202;-78
2021/03/28 04:07:47;;;;;;;4.80;2.80;;;2.80;99.90;;;;;;5011683;28;20197;-79
2021/03/28 04:10:31;;;;;;;7.43;3.10;;;2.80;99.90;;;;;;5011318;28;20667;-78
2021/03/28 04:13:22;;;;;;;7.23;2.83;;;2.90;99.90;;;;;;5011056;28;20845;-79
2021/03/28 04:16:03;;;;;;;5.53;2.60;;;2.90;99.90;;;;;;5010267;28;20201;-78
2021/03/28 04:18:52;;;;;;;8.63;3.17;;;2.90;99.90;;;;;;5011146;28;20201;-79
2021/03/28 04:21:27;;;;;;;5.67;3.10;;;2.90;99.90;;;;;;5011125;28;20189;-78
2021/03/28 04:24:15;;;;;;;5.60;3.10;;;3.00;99.90;;;;;;5011114;28;20280;-75
2021/03/28 04:26:54;;;;;;;7.23;3.00;;;3.00;99.90;;;;;;5010997;28;20353;-75
2021/03/28 04:29:20;;;;;;;6.23;3.17;;;3.00;99.90;;;;;;5011166;28;20612;-75
2021/03/28 04:32:08;;;;;;;5.77;3.20;;;3.00;99.90;;;;;;5010859;28;20248;-75
2021/03/28 04:34:49;;;;;;;6.53;3.43;;;2.90;99.90;;;;;;5011091;28;20201;-75
2021/03/28 04:37:31;;;;;;;7.43;3.07;;;2.90;99.90;;;;;;5010760;28;20204;-78
2021/03/28 04:40:42;;;;;;;7.43;2.90;;;3.00;99.90;;;;;;5010865;28;20197;-78
2021/03/28 04:43:32;;;;;;;4.97;2.70;;;3.10;99.90;;;;;;5010579;28;20578;-78
2021/03/28 04:46:22;;;;;;;4.50;2.53;;;3.20;99.90;;;;;;5010515;28;20231;-75
2021/03/28 04:49:04;;;;;;;6.23;3.30;;;3.20;99.90;;;;;;5010165;28;20233;-75
2021/03/28 04:51:55;;;;;;;7.10;3.00;;;3.20;99.90;;;;;;5010501;28;20190;-75
2021/03/28 04:55:05;;;;;;;4.90;2.53;;;3.10;99.90;;;;;;5010314;28;20197;-75
2021/03/28 04:57:50;;;;;;;4.77;2.40;;;3.20;99.90;;;;;;5010371;28;20208;-76
2021/03/28 05:00:52;;;;;;;6.67;2.90;;;3.20;99.90;;;;;;5010283;28;20712;-76
2021/03/28 05:03:51;;;;;;;8.37;2.60;;;3.30;99.90;;;;;;5010569;28;20205;-76
2021/03/28 05:06:43;;;;;;;3.20;2.70;;;3.20;99.90;;;;;;5010610;28;20569;-75
2021/03/28 05:09:43;;;;;;;4.00;2.70;;;3.20;99.90;;;;;;5010421;28;20252;-75
2021/03/28 05:12:42;;;;;;;5.97;3.00;;;3.30;99.90;;;;;;5009994;28;20280;-74
2021/03/28 05:15:40;;;;;;;5.93;2.93;;;3.30;99.90;;;;;;5009985;28;20193;-74
2021/03/28 05:18:50;;;;;;;5.70;2.83;;;3.30;99.90;;;;;;5009895;28;20198;-75
2021/03/28 05:21:40;;;;;;;2.60;2.40;;;3.40;99.90;;;;;;5010092;28;20190;-75
2021/03/28 05:24:44;;;;;;;5.60;2.70;;;3.30;99.90;;;;;;5010064;28;20198;-75
2021/03/28 05:27:42;;;;;;;3.27;2.77;;;3.30;99.90;;;;;;5009408;28;20229;-76
2021/03/28 05:30:49;;;;;;;7.10;3.20;;;3.40;99.90;;;;;;5010175;28;20197;-76
2021/03/28 05:33:42;;;;;;;6.20;2.93;;;3.40;99.90;;;;;;5001607;28;20233;-76
2021/03/28 05:36:32;;;;;;;7.03;2.87;;;3.50;99.90;;;;;;5009850;28;20244;-76
2021/03/28 05:39:34;;;;;;;4.37;2.87;;;3.60;99.90;;;;;;5009678;28;20279;-76
2021/03/28 05:42:23;;;;;;;4.37;2.90;;;3.60;99.90;;;;;;5009727;28;20201;-76
2021/03/28 05:45:21;;;;;;;4.97;3.20;;;3.60;99.90;;;;;;5009124;28;20653;-75
2021/03/28 05:48:21;;;;;;;6.87;3.47;;;3.60;99.90;;;;;;5009314;28;20712;-75
2021/03/28 05:50:58;;;;;;;6.37;3.03;;;3.60;99.90;;;;;;5009614;28;20203;-75
2021/03/28 05:53:55;;;;;;;4.73;2.93;;;3.60;99.90;;;;;;5009527;28;20229;-77
2021/03/28 05:56:58;;;;;;;4.37;2.93;;;3.60;99.90;;;;;;5009145;28;20213;-77
2021/03/28 05:59:54;;;;;;;4.30;2.60;;;3.70;99.90;;;;;;4998708;28;20213;-77
2021/03/28 06:02:52;;;;;;;4.80;3.03;;;3.80;99.90;;;;;;5009111;28;20204;-78
2021/03/28 06:06:03;;;;;;;5.83;2.90;;;3.90;99.90;;;;;;5009367;28;20197;-77
2021/03/28 06:09:25;;;;;;;6.37;3.37;;;4.00;99.90;;;;;;5009084;28;20273;-77
2021/03/28 06:12:22;;;;;;;6.57;3.23;;;4.00;99.90;;;;;;5008767;28;20655;-78
2021/03/28 06:15:07;;;;;;;4.30;3.20;;;4.10;99.90;;;;;;5009042;28;20747;-78
2021/03/28 06:17:58;;;;;;;5.93;3.07;;;4.20;99.90;;;;;;5009163;28;20230;-78
2021/03/28 06:20:56;;;;;;;7.40;3.37;;;4.20;99.90;;;;;;4977850;28;20241;-78
2021/03/28 06:23:55;;;;;;;8.07;3.33;;;4.30;99.90;;;;;;5009149;28;20225;-78
2021/03/28 06:27:00;;;;;;;7.13;3.30;;;4.30;99.90;;;;;;5009200;28;20251;-78
2021/03/28 06:30:03;;;;;;;4.70;2.80;;;4.30;99.90;;;;;;5009068;28;20671;-78
2021/03/28 06:33:23;;;;;;;9.33;3.60;;;4.40;99.90;;;;;;5008794;28;20225;-77
2021/03/28 06:36:21;;;;;;;5.23;3.30;;;4.50;99.90;;;;;;5008548;28;20672;-78
2021/03/28 06:39:21;;;;;;;5.63;3.00;;;4.60;99.90;;;;;;5008078;28;20198;-78
2021/03/28 06:42:24;;;;;;;6.90;3.70;;;4.60;99.90;;;;;;5008838;28;20204;-76
2021/03/28 06:45:24;;;;;;;5.80;3.30;;;4.60;99.90;;;;;;5008697;28;20197;-77
2021/03/28 06:48:20;;;;;;;6.30;3.23;;;4.70;99.90;;;;;;5007301;28;20210;-77
2021/03/28 06:51:06;;;;;;;5.13;3.50;;;4.70;99.90;;;;;;5008615;28;20202;-77
2021/03/28 06:53:52;;;;;;;7.27;3.60;;;4.80;99.90;;;;;;5008641;28;20221;-77
2021/03/28 06:57:09;;;;;;;8.70;3.50;;;4.80;99.90;;;;;;5008192;28;20202;-77
2021/03/28 07:00:09;;;;;;;6.33;3.43;;;4.80;99.90;;;;;;5008338;28;20194;-78
2021/03/28 07:03:13;;;;;;;4.13;3.00;;;4.90;99.90;;;;;;4984546;28;20688;-77
2021/03/28 07:05:44;;;;;;;5.83;3.20;;;4.90;99.90;;;;;;5008429;28;20213;-76
2021/03/28 07:08:31;;;;;;;6.00;3.27;;;5.00;99.90;;;;;;5008554;28;20200;-79
2021/03/28 07:11:18;;;;;;;8.77;3.73;;;5.00;99.90;;;;;;5008468;28;20204;-78
2021/03/28 07:14:12;;;;;;;5.20;3.67;;;5.10;99.90;;;;;;5005330;28;20268;-79
2021/03/28 07:17:18;;;;;;;6.63;3.63;;;5.10;99.90;;;;;;5008282;28;20205;-76
2021/03/28 07:20:10;;;;;;;5.33;3.43;;;5.20;99.90;;;;;;4982556;28;20280;-76
2021/03/28 07:22:51;;;;;;;6.70;3.27;;;5.20;99.90;;;;;;5008150;28;20222;-76
2021/03/28 07:25:43;;;;;;;6.40;3.30;;;5.30;99.90;;;;;;5008279;28;20201;-76
2021/03/28 07:28:35;;;;;;;5.10;2.83;;;5.30;99.90;;;;;;5008258;28;20198;-77
2021/03/28 07:31:30;;;;;;;4.33;2.80;;;5.40;99.90;;;;;;5008179;28;20661;-77
2021/03/28 07:34:20;;;;;;;6.17;2.77;;;5.50;99.90;;;;;;5008109;28;20652;-75
2021/03/28 07:37:42;;;;;;;7.27;3.07;;;5.60;99.90;;;;;;5008175;28;20236;-77
2021/03/28 07:40:27;;;;;;;5.63;2.77;;;5.70;99.90;;;;;;4965788;28;20210;-78
2021/03/28 07:43:15;;;;;;;5.23;2.83;;;5.80;99.90;;;;;;5007645;28;20715;-77
2021/03/28 07:45:59;;;;;;;7.57;2.60;;;6.00;99.90;;;;;;5007940;28;20193;-77
2021/03/28 07:48:54;;;;;;;4.67;2.60;;;6.10;99.90;;;;;;5008367;28;20637;-77
2021/03/28 07:51:55;;;;;;;5.83;2.47;;;6.10;99.90;;;;;;5010587;28;20201;-78
2021/03/28 07:54:40;;;;;;;8.37;4.63;;;6.20;99.90;;;;;;5011479;28;20216;-78
2021/03/28 07:57:36;;;;;;;6.37;3.30;;;6.30;99.90;;;;;;5011538;28;20275;-79
2021/03/28 08:00:37;;;;;;;7.30;2.60;;;6.40;99.90;;;;;;5011254;28;20646;-79
2021/03/28 08:03:28;;;;;;;5.23;2.63;;;6.40;99.90;;;;;;5011423;28;20255;-79
2021/03/28 08:06:13;;;;;;;5.90;2.57;;;6.50;99.90;;;;;;5010944;28;20671;-79
2021/03/28 08:09:05;;;;;;;6.67;2.30;;;6.60;99.90;;;;;;5011272;28;20563;-80
2021/03/28 08:11:51;;;;;;;5.47;2.60;;;6.60;99.90;;;;;;5008810;28;20683;-80
2021/03/28 08:14:53;;;;;;;4.33;2.50;;;6.60;99.90;;;;;;5011513;28;20233;-79
2021/03/28 08:17:42;;;;;;;6.70;3.17;;;6.60;99.90;;;;;;5010888;28;20683;-80
2021/03/28 08:20:52;;;;;;;4.43;2.77;;;6.60;99.90;;;;;;5010689;28;20237;-76
2021/03/28 08:23:42;;;;;;;4.27;2.57;;;6.60;99.90;;;;;;5011127;28;20277;-79
2021/03/28 08:26:40;;;;;;;4.47;2.40;;;6.70;99.90;;;;;;5008573;28;20706;-77
2021/03/28 08:29:22;;;;;;;7.57;2.43;;;6.80;99.90;;;;;;4986140;28;20293;-75
2021/03/28 08:31:57;;;;;;;4.83;2.50;;;6.90;99.90;;;;;;4990591;28;20657;-75
2021/03/28 08:35:09;;;;;;;3.53;2.20;;;6.90;99.90;;;;;;4990724;28;20538;-75
2021/03/28 08:38:05;;;;;;;4.07;1.93;;;7.00;99.90;;;;;;4991006;28;20209;-78
2021/03/28 08:41:03;;;;;;;4.87;2.33;;;7.10;99.90;;;;;;4991049;28;20261;-78
2021/03/28 08:44:04;;;;;;;3.97;2.10;;;7.20;99.90;;;;;;4991112;28;20202;-78
2021/03/28 08:47:04;;;;;;;2.80;2.40;;;7.20;99.90;;;;;;4990957;28;20229;-77
2021/03/28 08:49:37;;;;;;;2.80;2.17;;;7.30;99.90;;;;;;4995176;28;20221;-77
2021/03/28 08:52:30;;;;;;;2.53;1.90;;;7.40;99.90;;;;;;5002194;28;20249;-77
2021/03/28 08:55:04;;;;;;;4.40;2.47;;;7.50;99.90;;;;;;5006838;28;20202;-77
2021/03/28 08:57:42;;;;;;;6.53;2.53;;;7.60;99.90;;;;;;5006337;28;20645;-77
2021/03/28 09:00:31;;;;;;;2.90;1.93;;;7.70;99.90;;;;;;4996274;28;20202;-77
2021/03/28 09:03:33;;;;;;;5.93;2.20;;;7.70;99.90;;;;;;4997873;28;20267;-77
2021/03/28 09:06:05;;;;;;;5.00;2.27;;;7.80;99.90;;;;;;4959157;28;20277;-78
2021/03/28 09:08:34;;;;;;;4.97;2.13;;;7.80;99.90;;;;;;5006405;28;20202;-75
2021/03/28 09:11:24;;;;;;;4.37;2.00;;;7.90;99.90;;;;;;4994027;28;20664;-71
2021/03/28 09:14:01;;;;;;;4.43;2.43;;;7.90;99.90;;;;;;4987437;28;20686;-77
2021/03/28 09:16:41;;;;;;;6.17;2.30;;;8.20;99.90;;;;;;5005952;28;20209;-77
2021/03/28 09:19:40;;;;;;;4.83;2.53;;;8.30;99.90;;;;;;4995022;28;20245;-81
2021/03/28 09:22:18;;;;;;;3.10;1.83;;;8.40;99.90;;;;;;4995817;28;20294;-75
2021/03/28 09:24:55;;;;;;;7.37;2.13;;;8.50;99.90;;;;;;5006066;28;20224;-77
2021/03/28 09:27:38;;;;;;;10.80;7.10;;;8.70;99.90;;;;;;5005372;28;20208;-78
2021/03/28 09:30:34;;;;;;;5.33;3.47;;;8.80;99.90;;;;;;4995426;28;20198;-78
2021/03/28 09:33:35;;;;;;;6.97;4.30;;;8.90;99.90;;;;;;4960310;28;20662;-78
2021/03/28 09:36:28;;;;;;;5.80;2.50;;;9.10;99.90;;;;;;4986925;28;20593;-78
2021/03/28 09:39:28;;;;;;;5.87;2.40;;;9.10;99.90;;;;;;4978975;28;20210;-77
2021/03/28 09:42:11;;;;;;;6.93;2.33;;;9.10;99.90;;;;;;4995911;28;20190;-78
2021/03/28 09:44:53;;;;;;;7.03;2.57;;;9.00;99.90;;;;;;4996253;28;20198;-78
2021/03/28 09:47:31;;;;;;;4.33;2.10;;;9.10;99.90;;;;;;4996273;28;20260;-78
2021/03/28 09:50:11;;;;;;;5.63;2.50;;;9.10;99.90;;;;;;4996069;28;20715;-78
2021/03/28 09:52:52;;;;;;;5.70;2.30;;;9.40;99.90;;;;;;4995678;28;20253;-78
2021/03/28 09:55:37;;;;;;;6.17;2.60;;;9.50;99.90;;;;;;4995828;28;20198;-73
2021/03/28 09:58:28;;;;;;;6.23;2.73;;;9.50;99.90;;;;;;4996415;28;20194;-73
2021/03/28 10:01:10;;;;;;;5.90;2.70;;;9.70;99.90;;;;;;4994546;28;20213;-79
2021/03/28 10:03:48;;;;;;;2.70;2.00;;;9.80;99.90;;;;;;4995257;28;20653;-78
2021/03/28 10:06:18;;;;;;;6.63;2.73;;;9.80;99.90;;;;;;4996885;28;20589;-78
2021/03/28 10:08:48;;;;;;;7.23;2.57;;;9.90;99.90;;;;;;4996827;28;20260;-79
2021/03/28 10:11:24;;;;;;;7.17;2.53;;;9.90;99.90;;;;;;4995974;28;20205;-79
2021/03/28 10:14:35;;;;;;;5.10;3.17;;;10.00;99.90;;;;;;5004910;28;20656;-79
2021/03/28 10:17:20;;;;;;;6.33;2.57;;;10.30;99.90;;;;;;4958709;28;21021;-79
2021/03/28 10:19:50;;;;;;;4.60;2.10;;;10.40;99.90;;;;;;4986258;28;20238;-77
2021/03/28 10:22:34;;;;;;;6.17;2.83;;;10.50;99.90;;;;;;4986215;28;20210;-78
2021/03/28 10:25:38;;;;;;;7.47;2.93;;;10.50;99.90;;;;;;4986087;28;20205;-78
2021/03/28 10:28:42;;;;;;;5.80;2.70;;;10.50;99.90;;;;;;4985894;28;20275;-78
2021/03/28 10:31:25;;;;;;;4.57;2.57;;;10.50;99.90;;;;;;4993391;28;20212;-78
2021/03/28 10:34:08;;;;;;;5.93;2.33;;;10.60;99.90;;;;;;4993088;28;20847;-79
2021/03/28 10:36:44;;;;;;;4.30;2.70;;;10.50;99.90;;;;;;4995146;28;20212;-78
2021/03/28 10:39:25;;;;;;;5.30;2.83;;;10.30;99.90;;;;;;4994336;28;20257;-79
2021/03/28 10:42:14;;;;;;;4.83;2.80;;;10.40;99.90;;;;;;4994598;28;20198;-78
2021/03/28 10:45:15;;;;;;;4.97;2.80;;;10.50;99.90;;;;;;4991214;28;20205;-78
2021/03/28 10:48:12;;;;;;;5.77;3.23;;;10.60;99.90;;;;;;4985410;28;20214;-78
2021/03/28 10:51:11;;;;;;;6.23;2.93;;;10.70;99.90;;;;;;4985912;28;20587;-77
2021/03/28 10:54:05;;;;;;;4.13;3.37;;;10.90;99.90;;;;;;4986022;28;20244;-77
2021/03/28 10:57:08;;;;;;;4.57;3.17;;;11.00;99.90;;;;;;4985689;28;20213;-77
2021/03/28 11:00:11;;;;;;;6.97;3.23;;;11.00;99.90;;;;;;4985582;28;20228;-77
2021/03/28 11:03:25;;;;;;;5.43;2.50;;;11.10;99.90;;;;;;4985872;28;20568;-77
2021/03/28 11:06:38;;;;;;;4.40;3.00;;;11.30;99.90;;;;;;4985779;28;20270;-78
2021/03/28 11:09:17;;;;;;;13.70;5.17;;;11.40;99.90;;;;;;5002461;28;20562;-82
2021/03/28 11:12:23;;;;;;;6.37;3.40;;;11.50;99.90;;;;;;5008138;28;20235;-78
2021/03/28 11:15:17;;;;;;;6.93;3.20;;;11.70;99.90;;;;;;4992170;28;20241;-77
2021/03/28 11:18:17;;;;;;;7.40;2.40;;;11.90;99.90;;;;;;5008128;28;20213;-79
2021/03/28 11:20:54;;;;;;;5.43;2.10;;;12.20;99.90;;;;;;4983182;28;20300;-78
2021/03/28 11:23:45;;;;;;;5.67;2.47;;;12.30;99.90;;;;;;5008226;28;20190;-78
2021/03/28 11:26:51;;;;;;;4.80;2.70;;;12.30;99.90;;;;;;5009039;28;20814;-78
2021/03/28 11:29:38;;;;;;;3.77;2.20;;;12.40;99.90;;;;;;4978117;28;20280;-84
2021/03/28 11:32:20;;;;;;;2.93;2.17;;;12.30;99.90;;;;;;5010134;28;20298;-77
2021/03/28 11:35:01;;;;;;;6.97;2.70;;;12.10;99.90;;;;;;5007870;28;20232;-78
2021/03/28 11:37:40;;;;;;;3.87;2.10;;;11.90;99.90;;;;;;5007864;28;20205;-77
2021/03/28 11:40:31;;;;;;;3.90;1.70;;;11.70;99.90;;;;;;5007520;28;20652;-78
2021/03/28 11:43:33;;;;;;;5.60;2.03;;;11.60;99.90;;;;;;5007489;28;20198;-77
2021/03/28 11:46:20;;;;;;;5.40;1.93;;;11.60;99.90;;;;;;5006292;28;20523;-78
2021/03/28 11:49:02;;;;;;;2.93;2.00;;;11.50;99.90;;;;;;5007453;28;20243;-78
2021/03/28 11:51:43;;;;;;;2.30;2.10;;;11.40;99.90;;;;;;4988285;28;20194;-79
2021/03/28 11:54:18;;;;;;;6.13;1.80;;;11.40;99.90;;;;;;4988064;28;20230;-77
2021/03/28 11:56:49;;;;;;;5.80;1.90;;;11.30;99.90;;;;;;4996451;28;20239;-78
2021/03/28 11:59:34;;;;;;;5.07;1.67;;;11.40;99.90;;;;;;5007709;28;20224;-78
2021/03/28 12:02:03;;;;;;;2.80;1.53;;;11.40;99.90;;;;;;5007401;28;20198;-78
2021/03/28 12:04:32;;;;;;;5.83;1.70;;;11.40;99.90;;;;;;5007705;28;20205;-78
2021/03/28 12:07:13;;;;;;;2.93;1.50;;;11.40;99.90;;;;;;5007288;28;20240;-78
2021/03/28 12:09:41;;;;;;;2.83;1.60;;;11.40;99.90;;;;;;5007528;28;20197;-78
2021/03/28 12:12:24;;;;;;;8.17;1.50;;;11.40;99.90;;;;;;5006829;28;20240;-78
2021/03/28 12:14:50;;;;;;;3.30;1.50;;;11.60;99.90;;;;;;5006995;28;20606;-78
2021/03/28 12:17:22;;;;;;;2.83;1.57;;;11.80;99.90;;;;;;5006935;28;20233;-76
2021/03/28 12:19:56;;;;;;;4.03;1.67;;;11.90;99.90;;;;;;5003939;28;20229;-77
2021/03/28 12:22:27;;;;;;;3.53;1.60;;;12.00;99.90;;;;;;5006210;28;20577;-78
2021/03/28 12:25:00;;;;;;;3.63;1.67;;;11.90;99.90;;;;;;5006859;28;20198;-79
2021/03/28 12:27:33;;;;;;;5.60;1.80;;;11.90;99.90;;;;;;5006716;28;20229;-78
2021/03/28 12:30:00;;;;;;;3.87;1.90;;;11.90;99.90;;;;;;5006762;28;20664;-78
2021/03/28 12:32:57;;;;;;;2.83;1.90;;;11.90;99.90;;;;;;5006262;28;20284;-78
2021/03/28 12:35:32;;;;;;;3.90;1.73;;;12.00;99.90;;;;;;5006729;28;20201;-78
2021/03/28 12:38:15;;;;;;;4.00;1.83;;;11.90;99.90;;;;;;5005486;28;20552;-78
2021/03/28 12:40:42;;;;;;;4.17;2.30;;;11.90;99.90;;;;;;5006887;28;20198;-79
2021/03/28 12:43:30;;;;;;;5.30;1.77;;;12.00;99.90;;;;;;5006630;28;20217;-78
2021/03/28 12:45:56;;;;;;;3.67;1.97;;;11.80;99.90;;;;;;5006080;28;20204;-77
2021/03/28 12:48:36;;;;;;;2.57;1.80;;;11.80;99.90;;;;;;5006725;28;20264;-79
2021/03/28 12:51:14;;;;;;;4.03;2.07;;;11.80;99.90;;;;;;5006145;28;20197;-78
2021/03/28 12:53:41;;;;;;;4.03;1.77;;;12.00;99.90;;;;;;5006768;28;20232;-77
2021/03/28 12:56:20;;;;;;;4.03;1.87;;;12.20;99.90;;;;;;5006400;28;20210;-78
2021/03/28 12:58:53;;;;;;;4.53;1.80;;;12.20;99.90;;;;;;5006206;28;20198;-78
2021/03/28 13:01:27;;;;;;;5.27;2.03;;;12.00;99.90;;;;;;5003565;28;20194;-78
2021/03/28 13:04:04;;;;;;;2.47;1.63;;;12.00;99.90;;;;;;5006398;28;20227;-78
2021/03/28 13:06:38;;;;;;;5.27;1.80;;;11.90;99.90;;;;;;5006291;28;20209;-78
2021/03/28 13:09:27;;;;;;;5.50;1.87;;;11.80;99.90;;;;;;5006158;28;20288;-78
2021/03/28 13:11:56;;;;;;;3.60;1.70;;;11.70;99.90;;;;;;5005850;28;20260;-77
2021/03/28 13:14:38;;;;;;;4.57;1.77;;;11.70;99.90;;;;;;5005421;28;20280;-77
2021/03/28 13:17:17;;;;;;;5.73;2.00;;;11.60;99.90;;;;;;5006413;28;20213;-77
2021/03/28 13:19:46;;;;;;;3.20;1.97;;;11.50;99.90;;;;;;5005871;28;20241;-78
2021/03/28 13:22:34;;;;;;;3.23;1.40;;;11.50;99.90;;;;;;5006138;28;20206;-78
2021/03/28 13:25:20;;;;;;;2.70;1.53;;;11.40;99.90;;;;;;5005973;28;20232;-77
2021/03/28 13:27:50;;;;;;;3.97;1.90;;;11.40;99.90;;;;;;5004052;28;20251;-78
2021/03/28 13:30:23;;;;;;;3.93;2.00;;;11.30;99.90;;;;;;5006126;28;20298;-77
2021/03/28 13:32:51;;;;;;;3.00;1.90;;;11.30;99.90;;;;;;5005607;28;20272;-76
2021/03/28 13:35:28;;;;;;;4.80;2.00;;;11.30;99.90;;;;;;5006070;28;20237;-77
2021/03/28 13:37:56;;;;;;;3.40;1.60;;;11.30;99.90;;;;;;5005564;28;20201;-77
2021/03/28 13:40:27;;;;;;;4.10;1.77;;;11.30;99.90;;;;;;5005896;28;20300;-78
2021/03/28 13:42:56;;;;;;;4.83;1.87;;;11.40;99.90;;;;;;5005576;28;20197;-77
2021/03/28 13:45:33;;;;;;;3.57;1.80;;;11.40;99.90;;;;;;5005485;28;20297;-77
2021/03/28 13:48:15;;;;;;;4.50;2.00;;;11.40;99.90;;;;;;5005611;28;20197;-77
2021/03/28 13:50:45;;;;;;;4.40;2.10;;;11.40;99.90;;;;;;5004152;28;20205;-78
2021/03/28 13:53:32;;;;;;;3.57;2.00;;;11.30;99.90;;;;;;5004804;28;20229;-79
2021/03/28 13:56:39;;;;;;;6.47;2.27;;;11.40;99.90;;;;;;5004762;28;20289;-78
2021/03/28 13:59:10;;;;;;;4.30;1.93;;;11.30;99.90;;;;;;5004780;28;20616;-75
2021/03/28 14:01:54;;;;;;;6.53;2.10;;;11.50;99.90;;;;;;5004782;28;21710;-75
2021/03/28 14:04:30;;;;;;;4.93;2.20;;;11.50;99.90;;;;;;5005092;28;20198;-78
2021/03/28 14:07:22;;;;;;;4.70;2.30;;;11.50;99.90;;;;;;5004483;28;20228;-78
2021/03/28 14:09:54;;;;;;;3.73;2.20;;;11.40;99.90;;;;;;5001095;28;20206;-78
2021/03/28 14:12:33;;;;;;;6.67;1.90;;;11.40;99.90;;;;;;5005773;28;20201;-78
2021/03/28 14:15:21;;;;;;;6.03;2.20;;;11.40;99.90;;;;;;5008292;28;20224;-77
2021/03/28 14:17:54;;;;;;;5.07;2.17;;;11.40;99.90;;;;;;5012267;28;20217;-79
2021/03/28 14:20:24;;;;;;;3.57;2.07;;;11.50;99.90;;;;;;5027561;28;20290;-78
2021/03/28 14:22:53;;;;;;;5.57;2.20;;;11.50;99.90;;;;;;5027821;28;20201;-79
2021/03/28 14:25:31;;;;;;;6.40;2.33;;;11.60;99.90;;;;;;5027888;28;20197;-78
2021/03/28 14:27:58;;;;;;;5.40;2.67;;;11.60;99.90;;;;;;5027911;28;20204;-80